Time;durP1;ratioP1;P1;durP2;ratioP2;P2;SDS_P1;SDS_P2;PMS_P1;PMS_P2;Temp;Humidity;BMP_temperature;BMP_pressure;BME280_temperature;BME280_humidity;BME280_pressure;Samples;Min_cycle;Max_cycle;Signal;HPM_P1;HPM_P2
2021/09/24 00:01:42;;;;;;;;;4.75;4.75;;;;;16.71;45.06;101389.00;146606;584;46018;-77
2021/09/24 00:04:16;;;;;;;;;5.00;5.00;;;;;16.70;45.66;101392.44;146609;573;46008;-79
2021/09/24 00:06:51;;;;;;;;;7.00;5.75;;;;;16.65;45.72;101386.16;146606;563;46010;-78
2021/09/24 00:09:24;;;;;;;;;7.50;6.50;;;;;16.59;45.83;101392.06;146607;577;46018;-74
2021/09/24 00:11:58;;;;;;;;;5.75;4.75;;;;;16.54;46.34;101386.66;146606;571;46018;-72
2021/09/24 00:14:33;;;;;;;;;7.75;6.50;;;;;16.47;46.37;101387.25;146608;675;46008;-72
2021/09/24 00:17:07;;;;;;;;;5.50;3.75;;;;;16.45;46.19;101380.16;146606;593;46914;-74
2021/09/24 00:19:41;;;;;;;;;7.25;6.00;;;;;16.39;46.46;101388.69;146608;625;47008;-76
2021/09/24 00:22:15;;;;;;;;;7.00;6.00;;;;;16.30;46.88;101385.72;146605;566;46018;-76
2021/09/24 00:24:49;;;;;;;;;7.75;5.00;;;;;16.20;46.68;101386.19;146609;575;45018;-76
2021/09/24 00:27:23;;;;;;;;;6.00;6.00;;;;;16.10;47.06;101383.22;146606;566;46018;-72
2021/09/24 00:29:57;;;;;;;;;7.00;6.00;;;;;16.01;47.03;101382.87;146611;569;45018;-71
2021/09/24 00:32:30;;;;;;;;;4.75;3.50;;;;;15.95;46.74;101390.47;146607;569;45574;-71
2021/09/24 00:35:04;;;;;;;;;7.00;7.00;;;;;15.88;48.07;101393.66;146607;720;46018;-71
2021/09/24 00:37:38;;;;;;;;;4.75;4.00;;;;;15.79;48.18;101388.94;146603;585;46018;-70
2021/09/24 00:40:13;;;;;;;;;5.75;4.25;;;;;15.69;48.39;101394.62;146603;658;47010;-75
2021/09/24 00:42:47;;;;;;;;;5.50;4.00;;;;;15.63;47.65;101387.38;146603;581;46019;-74
2021/09/24 00:45:21;;;;;;;;;4.00;4.00;;;;;15.58;48.08;101388.94;146607;666;46026;-73
2021/09/24 00:47:55;;;;;;;;;5.75;5.75;;;;;15.56;49.29;101393.19;146606;656;46024;-75
2021/09/24 00:50:29;;;;;;;;;5.25;5.00;;;;;15.51;47.87;101397.34;146607;592;46018;-73
2021/09/24 00:53:04;;;;;;;;;5.00;5.00;;;;;15.47;48.75;101387.59;146609;563;46010;-73
2021/09/24 00:55:39;;;;;;;;;5.25;5.00;;;;;15.45;47.97;101386.63;146608;630;46028;-74
2021/09/24 00:58:13;;;;;;;;;6.00;5.00;;;;;15.44;48.70;101383.13;146606;643;46018;-73
2021/09/24 01:00:47;;;;;;;;;6.25;5.00;;;;;15.41;48.56;101377.75;146606;579;46010;-73
2021/09/24 01:03:24;;;;;;;;;3.25;3.25;;;;;15.38;47.77;101374.12;146608;570;46010;-73
2021/09/24 01:05:58;;;;;;;;;4.00;4.00;;;;;15.37;49.64;101377.59;146607;576;46010;-73
2021/09/24 01:08:35;;;;;;;;;5.00;5.00;;;;;15.29;48.48;101381.59;146604;590;46018;-76
2021/09/24 01:11:09;;;;;;;;;5.00;4.75;;;;;15.20;49.51;101382.06;146607;613;46019;-78
2021/09/24 01:13:43;;;;;;;;;4.00;4.00;;;;;15.13;48.72;101383.53;146605;616;46010;-74
2021/09/24 01:16:17;;;;;;;;;4.25;4.25;;;;;15.11;49.41;101382.59;146607;565;46018;-76
2021/09/24 01:18:51;;;;;;;;;4.25;4.25;;;;;15.07;49.02;101375.44;146606;590;46010;-74
2021/09/24 01:21:25;;;;;;;;;6.50;5.00;;;;;15.04;49.71;101377.03;146610;683;45018;-81
2021/09/24 01:23:59;;;;;;;;;5.50;3.75;;;;;14.99;49.83;101371.63;146604;565;46018;-84
2021/09/24 01:26:33;;;;;;;;;5.25;4.75;;;;;14.96;50.42;101374.09;146605;595;47008;-83
2021/09/24 01:29:07;;;;;;;;;4.50;3.50;;;;;14.92;49.80;101367.84;146606;602;46018;-80
2021/09/24 01:31:42;;;;;;;;;5.75;4.50;;;;;14.92;50.24;101370.47;146610;720;45019;-80
2021/09/24 01:34:16;;;;;;;;;5.00;5.00;;;;;14.88;49.73;101359.81;146605;597;46019;-77
2021/09/24 01:36:50;;;;;;;;;6.00;3.25;;;;;14.87;49.37;101351.09;146608;626;46018;-73
2021/09/24 01:39:24;;;;;;;;;5.25;4.00;;;;;14.91;49.17;101358.22;146602;564;46018;-73
2021/09/24 01:41:58;;;;;;;;;5.00;5.00;;;;;14.94;50.46;101365.28;146607;579;46018;-72
2021/09/24 01:44:32;;;;;;;;;5.50;4.00;;;;;14.88;49.69;101363.28;146604;598;47022;-74
2021/09/24 01:47:06;;;;;;;;;7.50;6.25;;;;;14.83;50.10;101362.22;146608;565;46008;-74
2021/09/24 01:49:40;;;;;;;;;5.25;5.00;;;;;14.76;50.12;101361.03;146605;635;46019;-74
2021/09/24 01:52:14;;;;;;;;;6.50;5.00;;;;;14.71;50.43;101354.72;146603;573;46018;-72
2021/09/24 01:54:48;;;;;;;;;5.50;4.00;;;;;14.67;50.84;101355.44;146605;569;46019;-72
2021/09/24 01:57:22;;;;;;;;;5.25;5.00;;;;;14.63;50.39;101363.03;146609;593;46018;-71
2021/09/24 01:59:55;;;;;;;;;5.25;4.00;;;;;14.60;50.53;101355.06;146607;620;46018;-76
2021/09/24 02:02:30;;;;;;;;;4.50;4.00;;;;;14.55;50.19;101354.88;146609;645;46019;-75
2021/09/24 02:05:04;;;;;;;;;6.50;5.00;;;;;14.57;50.19;101353.22;146603;563;46018;-81
2021/09/24 02:07:38;;;;;;;;;5.00;5.00;;;;;14.61;50.33;101357.78;146610;569;46008;-76
2021/09/24 02:10:13;;;;;;;;;5.25;4.25;;;;;14.67;49.70;101360.66;146607;591;46018;-76
2021/09/24 02:12:46;;;;;;;;;6.00;6.00;;;;;14.71;49.86;101359.97;146606;584;46018;-78
2021/09/24 02:15:20;;;;;;;;;5.25;3.75;;;;;14.72;51.25;101364.34;146603;590;46018;-76
2021/09/24 02:17:54;;;;;;;;;6.50;5.00;;;;;14.66;51.17;101358.84;146609;630;46006;-76
2021/09/24 02:20:28;;;;;;;;;5.75;5.75;;;;;14.54;51.53;101368.72;146605;565;46018;-74
2021/09/24 02:23:03;;;;;;;;;5.75;3.50;;;;;14.44;50.56;101370.00;146607;571;46008;-74
2021/09/24 02:25:36;;;;;;;;;4.50;4.50;;;;;14.41;51.34;101361.16;146607;599;46018;-73
2021/09/24 02:28:10;;;;;;;;;5.50;5.25;;;;;14.38;51.55;101368.81;146607;571;46018;-74
2021/09/24 02:30:44;;;;;;;;;6.75;6.50;;;;;14.37;51.88;101369.66;146607;586;46019;-74
2021/09/24 02:33:18;;;;;;;;;8.75;6.00;;;;;14.37;52.21;101370.56;146608;608;45019;-73
2021/09/24 02:35:52;;;;;;;;;6.25;4.75;;;;;14.36;51.53;101367.84;146604;605;47010;-79
2021/09/24 02:38:26;;;;;;;;;8.00;5.75;;;;;14.36;51.13;101367.84;146610;627;45029;-78
2021/09/24 02:41:04;;;;;;;;;8.50;6.50;;;;;14.39;50.84;101373.22;146606;638;46018;-78
2021/09/24 02:43:38;;;;;;;;;6.00;5.25;;;;;14.43;50.79;101369.94;146606;570;46018;-78
2021/09/24 02:46:12;;;;;;;;;6.00;6.00;;;;;14.45;51.34;101363.94;146606;571;46018;-76
2021/09/24 02:48:46;;;;;;;;;6.75;5.25;;;;;14.43;51.88;101364.72;146606;680;46018;-77
2021/09/24 02:51:20;;;;;;;;;6.75;5.50;;;;;14.42;51.22;101366.41;146605;631;46018;-76
2021/09/24 02:53:54;;;;;;;;;15.25;12.50;;;;;14.39;51.17;101357.56;146608;574;46019;-76
2021/09/24 02:56:28;;;;;;;;;14.75;14.75;;;;;14.38;51.75;101361.00;146605;645;47033;-76
2021/09/24 02:59:02;;;;;;;;;9.50;8.50;;;;;14.31;51.71;101365.94;146606;589;46018;-76
2021/09/24 03:01:36;;;;;;;;;6.25;6.00;;;;;14.28;51.09;101365.78;146607;600;45022;-74
2021/09/24 03:04:11;;;;;;;;;6.50;6.50;;;;;14.23;51.71;101356.84;146609;600;46010;-75
2021/09/24 03:06:45;;;;;;;;;5.00;5.00;;;;;14.21;52.48;101368.94;146599;619;47018;-75
2021/09/24 03:09:19;;;;;;;;;5.75;5.75;;;;;14.14;52.90;101372.06;146602;565;46019;-76
2021/09/24 03:11:53;;;;;;;;;8.25;5.75;;;;;14.06;52.40;101368.22;146607;616;46018;-75
2021/09/24 03:14:27;;;;;;;;;5.75;5.75;;;;;13.97;52.42;101363.47;146606;572;46018;-76
2021/09/24 03:17:01;;;;;;;;;8.75;8.00;;;;;13.95;53.25;101372.91;146605;631;46018;-76
2021/09/24 03:19:35;;;;;;;;;6.25;6.25;;;;;13.92;53.46;101361.44;146611;652;45018;-75
2021/09/24 03:22:09;;;;;;;;;6.50;5.50;;;;;13.86;53.56;101364.66;146605;662;46018;-75
2021/09/24 03:24:43;;;;;;;;;7.00;4.00;;;;;13.82;53.08;101373.16;146609;695;46011;-75
2021/09/24 03:27:17;;;;;;;;;7.25;6.00;;;;;13.80;53.64;101366.97;146606;565;46018;-75
2021/09/24 03:29:51;;;;;;;;;6.00;6.00;;;;;13.77;54.15;101378.16;146609;625;46018;-75
2021/09/24 03:32:25;;;;;;;;;6.25;6.00;;;;;13.72;54.08;101374.44;146605;586;46025;-77
2021/09/24 03:35:00;;;;;;;;;8.00;6.50;;;;;13.65;54.67;101374.06;146608;599;46008;-77
2021/09/24 03:37:34;;;;;;;;;7.00;7.00;;;;;13.58;54.57;101378.97;146605;574;46019;-74
2021/09/24 03:40:08;;;;;;;;;7.25;6.25;;;;;13.55;53.67;101372.69;146606;569;46018;-75
2021/09/24 03:42:42;;;;;;;;;6.00;6.00;;;;;13.54;53.57;101373.53;146607;593;46018;-73
2021/09/24 03:45:16;;;;;;;;;6.25;5.25;;;;;13.59;54.09;101372.94;146606;654;46019;-72
2021/09/24 03:47:50;;;;;;;;;5.75;5.00;;;;;13.65;54.03;101374.06;146606;606;46018;-78
2021/09/24 03:50:24;;;;;;;;;6.25;6.25;;;;;13.63;54.97;101363.53;146607;616;46018;-82
2021/09/24 03:52:59;;;;;;;;;7.25;6.00;;;;;13.63;54.77;101369.66;146607;564;46018;-72
2021/09/24 03:55:33;;;;;;;;;6.75;6.00;;;;;13.64;54.28;101367.94;146609;611;46018;-72
2021/09/24 03:58:07;;;;;;;;;7.75;6.50;;;;;13.63;54.42;101361.84;146606;563;46018;-74
2021/09/24 04:00:41;;;;;;;;;4.50;4.50;;;;;13.63;53.76;101366.16;146606;604;46019;-73
2021/09/24 04:03:15;;;;;;;;;7.00;6.00;;;;;13.65;54.64;101366.25;146604;569;46018;-73
2021/09/24 04:05:49;;;;;;;;;5.25;4.00;;;;;13.63;54.08;101366.16;146607;572;46018;-73
2021/09/24 04:08:23;;;;;;;;;7.50;6.00;;;;;13.60;53.74;101358.19;146606;604;46011;-73
2021/09/24 04:10:57;;;;;;;;;6.75;6.25;;;;;13.62;53.18;101359.16;146608;596;46018;-74
2021/09/24 04:13:30;;;;;;;;;6.00;6.00;;;;;13.68;53.57;101358.56;146605;624;46018;-70
2021/09/24 04:16:04;;;;;;;;;7.75;7.50;;;;;13.72;52.91;101357.91;146607;622;46018;-70
2021/09/24 04:18:38;;;;;;;;;7.00;6.25;;;;;13.77;53.81;101364.22;146606;611;46018;-71
2021/09/24 04:21:12;;;;;;;;;5.00;5.00;;;;;13.78;54.22;101366.91;146607;746;46018;-69
2021/09/24 04:23:46;;;;;;;;;8.50;5.75;;;;;13.76;54.21;101365.03;146604;604;46019;-71
2021/09/24 04:26:20;;;;;;;;;9.25;8.50;;;;;13.70;54.16;101368.22;146607;634;46008;-76
2021/09/24 04:28:54;;;;;;;;;6.25;6.25;;;;;13.68;54.54;101364.69;146603;578;47914;-76
2021/09/24 04:31:32;;;;;;;;;8.00;6.75;;;;;13.63;55.53;101360.94;146607;576;46019;-76
2021/09/24 04:34:06;;;;;;;;;12.25;7.25;;;;;13.60;55.11;101364.28;146606;738;46010;-74
2021/09/24 04:36:40;;;;;;;;;5.25;5.25;;;;;13.57;55.25;101368.47;146607;570;46018;-76
2021/09/24 04:39:14;;;;;;;;;11.50;6.00;;;;;13.59;54.26;101366.84;146605;641;46018;-73
2021/09/24 04:41:48;;;;;;;;;9.00;8.25;;;;;13.62;54.75;101373.09;146606;563;46018;-72
2021/09/24 04:44:22;;;;;;;;;6.50;5.25;;;;;13.69;54.61;101376.00;146605;698;46018;-72
2021/09/24 04:46:56;;;;;;;;;7.00;5.50;;;;;13.74;53.72;101366.69;146607;597;46018;-71
2021/09/24 04:49:30;;;;;;;;;6.25;6.00;;;;;13.79;53.60;101363.47;146607;593;46018;-75
2021/09/24 04:52:04;;;;;;;;;7.50;6.00;;;;;13.86;54.44;101360.34;146607;616;46010;-77
2021/09/24 04:54:38;;;;;;;;;9.25;6.50;;;;;14.00;53.44;101362.72;146606;592;47010;-78
2021/09/24 04:57:12;;;;;;;;;5.75;5.75;;;;;14.58;52.95;101356.72;146609;624;45018;-76
2021/09/24 04:59:45;;;;;;;;;9.00;7.75;;;;;15.58;51.14;101354.06;146604;582;46019;-76
2021/09/24 05:02:20;;;;;;;;;8.25;7.25;;;;;16.59;48.55;101358.03;146608;608;46018;-76
2021/09/24 05:04:53;;;;;;;;;5.75;5.25;;;;;17.38;46.85;101353.81;146607;668;46018;-75
2021/09/24 05:07:27;;;;;;;;;8.00;8.00;;;;;18.08;45.30;101357.88;146607;572;47010;-76
2021/09/24 05:10:01;;;;;;;;;7.25;7.25;;;;;18.64;43.72;101353.41;146607;632;45910;-76
2021/09/24 05:12:35;;;;;;;;;9.00;7.00;;;;;19.20;42.75;101343.56;146606;574;46018;-71
2021/09/24 05:15:10;;;;;;;;;8.50;7.50;;;;;19.74;41.86;101342.31;146603;564;46019;-71
2021/09/24 05:17:44;;;;;;;;;11.50;9.25;;;;;20.23;41.02;101348.69;146609;565;45020;-71
2021/09/24 05:20:17;;;;;;;;;11.25;8.75;;;;;20.65;40.22;101353.09;146605;648;46018;-71
2021/09/24 05:22:51;;;;;;;;;8.25;8.25;;;;;20.97;39.44;101346.72;146608;574;46019;-71
2021/09/24 05:25:25;;;;;;;;;8.25;7.00;;;;;21.22;38.89;101352.44;146605;569;46018;-71
2021/09/24 05:28:00;;;;;;;;;7.25;6.00;;;;;21.31;38.62;101354.31;146607;665;46018;-71
2021/09/24 05:30:34;;;;;;;;;8.00;7.50;;;;;21.35;38.58;101359.72;146606;565;46011;-71
2021/09/24 05:33:08;;;;;;;;;5.50;5.50;;;;;21.27;38.58;101356.00;146609;637;46018;-74
2021/09/24 05:35:42;;;;;;;;;7.00;6.75;;;;;21.10;38.33;101353.09;146604;579;46018;-74
2021/09/24 05:38:16;;;;;;;;;5.00;5.00;;;;;20.92;39.03;101360.66;146607;690;46018;-75
2021/09/24 05:40:50;;;;;;;;;6.75;5.50;;;;;20.85;40.06;101364.94;146605;608;46018;-70
2021/09/24 05:43:24;;;;;;;;;10.75;7.25;;;;;20.86;39.95;101365.81;146606;610;46018;-70
2021/09/24 05:45:57;;;;;;;;;8.25;8.25;;;;;20.89;39.52;101363.22;146607;588;45023;-71
2021/09/24 05:48:31;;;;;;;;;10.50;9.00;;;;;20.95;39.17;101366.88;146610;601;45018;-70
2021/09/24 05:51:05;;;;;;;;;10.25;9.00;;;;;21.03;39.33;101371.38;146606;591;46018;-68
2021/09/24 05:53:40;;;;;;;;;8.00;8.00;;;;;21.10;38.81;101363.63;146607;569;46018;-68
2021/09/24 05:56:14;;;;;;;;;12.00;8.75;;;;;21.12;38.81;101366.28;146604;611;46018;-69
2021/09/24 05:58:54;;;;;;;;;10.75;8.25;;;;;21.17;38.58;101367.28;146606;599;46018;-76
2021/09/24 06:01:28;;;;;;;;;12.75;9.00;;;;;21.20;39.26;101370.84;146605;575;46018;-77
2021/09/24 06:04:03;;;;;;;;;9.25;9.00;;;;;21.27;38.74;101376.22;146604;593;46018;-78
2021/09/24 06:06:37;;;;;;;;;9.50;8.50;;;;;21.34;39.01;101371.09;146604;573;46019;-75
2021/09/24 06:09:11;;;;;;;;;7.75;7.75;;;;;21.42;38.63;101369.50;146606;587;46018;-75
2021/09/24 06:11:46;;;;;;;;;10.25;8.50;;;;;21.52;38.40;101372.31;146607;635;46018;-78
2021/09/24 06:14:20;;;;;;;;;7.75;7.75;;;;;21.62;38.42;101363.66;146609;714;46008;-72
2021/09/24 06:16:53;;;;;;;;;9.00;8.25;;;;;21.76;37.70;101369.19;146606;602;46010;-75
2021/09/24 06:19:27;;;;;;;;;8.25;8.00;;;;;21.87;38.03;101372.87;146607;597;46010;-75
2021/09/24 06:22:01;;;;;;;;;11.25;10.50;;;;;21.99;37.49;101366.88;146608;659;45022;-75
2021/09/24 06:24:36;;;;;;;;;10.50;7.25;;;;;22.13;37.40;101365.34;146608;632;47008;-68
2021/09/24 06:27:14;;;;;;;;;7.25;7.25;;;;;22.29;37.19;101362.06;146605;616;46018;-69
2021/09/24 06:29:51;;;;;;;;;10.75;6.00;;;;;22.44;37.71;101364.03;146607;618;46019;-70
2021/09/24 06:32:27;;;;;;;;;10.00;8.00;;;;;22.59;37.22;101364.22;146602;657;47022;-69
2021/09/24 06:35:01;;;;;;;;;6.00;6.00;;;;;22.71;36.54;101358.19;146603;666;46018;-69
2021/09/24 06:37:35;;;;;;;;;9.00;6.50;;;;;22.82;35.83;101361.81;146606;579;46020;-69
2021/09/24 06:40:11;;;;;;;;;7.50;7.50;;;;;22.89;36.11;101356.59;146609;565;45018;-70
2021/09/24 06:42:45;;;;;;;;;9.00;8.50;;;;;22.93;36.53;101361.97;146605;571;46019;-69
2021/09/24 06:45:19;;;;;;;;;8.75;7.75;;;;;23.03;36.61;101355.91;146606;581;46019;-70
2021/09/24 06:47:53;;;;;;;;;6.75;6.00;;;;;23.19;36.81;101362.25;146607;654;46018;-69
2021/09/24 06:50:28;;;;;;;;;7.25;6.00;;;;;23.39;36.61;101358.87;146606;571;47008;-69
2021/09/24 06:53:02;;;;;;;;;8.75;8.00;;;;;23.62;35.81;101356.44;146602;642;46019;-69
2021/09/24 06:55:38;;;;;;;;;7.25;7.25;;;;;23.82;36.30;101359.25;146607;584;46018;-69
2021/09/24 06:58:11;;;;;;;;;8.75;7.75;;;;;24.02;35.73;101368.25;146606;682;45914;-69
2021/09/24 07:00:45;;;;;;;;;3.75;3.75;;;;;24.21;35.98;101369.22;146607;684;46010;-69
2021/09/24 07:03:19;;;;;;;;;8.75;7.75;;;;;24.40;35.39;101363.13;146606;664;47010;-70
2021/09/24 07:05:53;;;;;;;;;10.25;8.00;;;;;24.58;35.02;101366.75;146606;587;47008;-69
2021/09/24 07:08:27;;;;;;;;;13.00;11.25;;;;;24.74;34.82;101358.00;146608;634;46010;-70
2021/09/24 07:11:01;;;;;;;;;10.75;9.00;;;;;24.91;34.56;101360.69;146607;573;46912;-69
2021/09/24 07:13:35;;;;;;;;;9.75;8.75;;;;;25.06;34.61;101362.50;146604;571;46011;-70
2021/09/24 07:16:13;;;;;;;;;8.25;8.25;;;;;25.18;34.17;101362.53;146607;602;46912;-70
2021/09/24 07:18:47;;;;;;;;;12.00;11.00;;;;;25.27;33.32;101362.56;146606;628;46018;-70
2021/09/24 07:21:21;;;;;;;;;12.00;11.00;;;;;25.38;33.56;101359.00;146605;565;46019;-69
2021/09/24 07:23:55;;;;;;;;;9.00;8.00;;;;;25.42;31.98;101356.38;146605;696;46018;-71
2021/09/24 07:26:29;;;;;;;;;12.25;9.25;;;;;25.39;33.55;101359.03;146604;651;46010;-68
2021/09/24 07:29:03;;;;;;;;;8.75;7.50;;;;;25.36;32.71;101364.34;146606;567;47010;-70
2021/09/24 07:31:37;;;;;;;;;7.75;7.00;;;;;25.28;32.13;101359.00;146609;608;46018;-67
2021/09/24 07:34:11;;;;;;;;;7.50;7.50;;;;;25.18;33.80;101357.25;146605;600;45914;-69
2021/09/24 07:36:45;;;;;;;;;7.75;7.25;;;;;25.18;33.95;101361.66;146607;573;46019;-70
2021/09/24 07:39:19;;;;;;;;;9.00;7.75;;;;;25.27;33.35;101357.25;146602;566;46026;-66
2021/09/24 07:41:53;;;;;;;;;6.00;6.00;;;;;25.44;32.75;101357.25;146609;591;46008;-66
2021/09/24 07:44:27;;;;;;;;;7.50;6.50;;;;;25.63;33.45;101358.13;146602;653;48021;-70
2021/09/24 07:47:01;;;;;;;;;5.50;5.50;;;;;25.83;31.58;101359.94;146608;660;46010;-70
2021/09/24 07:49:35;;;;;;;;;8.00;5.00;;;;;25.88;31.13;101364.31;146604;569;47022;-71
2021/09/24 07:52:09;;;;;;;;;6.75;4.50;;;;;25.87;31.68;101353.72;146605;652;46018;-68
2021/09/24 07:54:43;;;;;;;;;10.75;7.25;;;;;25.91;31.89;101356.34;146605;613;47010;-68
2021/09/24 07:57:17;;;;;;;;;5.00;5.00;;;;;26.02;32.32;101362.53;146607;693;46018;-68
2021/09/24 07:59:51;;;;;;;;;6.75;5.50;;;;;26.13;30.68;101356.28;146606;645;46018;-68
2021/09/24 08:02:25;;;;;;;;;6.25;5.25;;;;;26.19;31.67;101353.62;146609;631;45020;-67
2021/09/24 08:04:59;;;;;;;;;5.00;4.67;;;;;26.22;30.65;101361.59;146608;595;46010;-68
2021/09/24 08:07:33;;;;;;;;;4.00;4.00;;;;;26.19;31.54;101365.13;146607;577;46018;-68
2021/09/24 08:10:08;;;;;;;;;4.00;4.00;;;;;26.24;30.95;101357.16;146606;596;46022;-68
2021/09/24 08:12:43;;;;;;;;;6.25;5.25;;;;;26.32;31.01;101352.69;146611;597;46019;-68
2021/09/24 08:15:18;;;;;;;;;4.25;4.25;;;;;26.48;29.12;101356.19;146605;677;46018;-67
2021/09/24 08:17:53;;;;;;;;;6.00;5.00;;;;;26.52;30.73;101357.97;146606;623;46018;-68
2021/09/24 08:20:26;;;;;;;;;4.00;4.00;;;;;26.56;30.95;101350.84;146605;663;47010;-67
2021/09/24 08:23:00;;;;;;;;;6.33;6.00;;;;;26.66;29.29;101348.13;146607;641;46018;-68
2021/09/24 08:25:35;;;;;;;;;6.00;5.00;;;;;26.69;30.70;101348.13;146606;596;46010;-70
2021/09/24 08:28:09;;;;;;;;;5.00;5.00;;;;;26.77;31.68;101339.22;146608;619;46008;-68
2021/09/24 08:30:43;;;;;;;;;4.00;4.00;;;;;26.85;30.70;101348.91;146606;576;46018;-70
2021/09/24 08:33:17;;;;;;;;;8.00;6.00;;;;;26.96;30.04;101340.88;146607;649;46018;-70
2021/09/24 08:35:51;;;;;;;;;5.75;4.50;;;;;27.11;29.24;101335.44;146608;600;45915;-71
2021/09/24 08:38:25;;;;;;;;;3.00;3.00;;;;;27.25;30.36;101337.12;146607;604;47006;-75
2021/09/24 08:40:59;;;;;;;;;5.25;4.00;;;;;27.33;28.72;101324.66;146604;625;46018;-70
2021/09/24 08:43:37;;;;;;;;;5.25;4.25;;;;;27.39;29.78;101329.94;146606;570;46011;-68
2021/09/24 08:46:11;;;;;;;;;6.75;4.50;;;;;27.47;29.97;101328.06;146605;596;47914;-72
2021/09/24 08:48:47;;;;;;;;;5.00;5.00;;;;;27.49;30.24;101330.72;146609;580;45020;-71
2021/09/24 08:51:21;;;;;;;;;5.75;4.75;;;;;27.52;29.25;101330.72;146606;576;46018;-67
2021/09/24 08:53:55;;;;;;;;;6.00;6.00;;;;;27.55;29.33;101330.69;146606;600;46020;-70
2021/09/24 08:56:29;;;;;;;;;5.75;4.75;;;;;27.52;29.02;101326.25;146605;666;46018;-71
2021/09/24 08:59:03;;;;;;;;;4.25;4.25;;;;;27.50;29.02;101321.84;146608;566;46018;-71
2021/09/24 09:01:37;;;;;;;;;5.50;5.25;;;;;27.52;30.43;101323.59;146606;577;46018;-73
2021/09/24 09:04:11;;;;;;;;;6.50;5.50;;;;;27.60;29.65;101316.44;146609;599;46008;-68
2021/09/24 09:06:45;;;;;;;;;5.00;3.25;;;;;27.61;29.34;101312.84;146603;579;47021;-70
2021/09/24 09:09:19;;;;;;;;;6.75;4.75;;;;;27.70;28.55;101311.00;146606;601;46010;-69
2021/09/24 09:11:55;;;;;;;;;5.00;5.00;;;;;27.85;29.71;101305.53;146606;620;47022;-70
2021/09/24 09:14:30;;;;;;;;;6.00;5.00;;;;;28.05;28.46;101300.84;146608;698;46018;-70
2021/09/24 09:17:04;;;;;;;;;5.25;5.25;;;;;28.26;28.00;101304.19;146604;600;46018;-70
2021/09/24 09:19:41;;;;;;;;;5.75;4.00;;;;;28.33;28.98;101300.53;146610;657;45020;-69
2021/09/24 09:22:26;;;;;;;;;4.25;3.25;;;;;28.26;30.05;101298.84;146607;607;46010;-70
2021/09/24 09:24:59;;;;;;;;;5.25;5.00;;;;;28.17;28.90;101283.84;146603;711;47010;-71
2021/09/24 09:27:33;;;;;;;;;5.00;3.75;;;;;28.08;28.96;101291.94;146602;565;47021;-69
2021/09/24 09:30:14;;;;;;;;;6.00;4.25;;;;;28.05;26.97;101289.31;146608;664;47008;-70
2021/09/24 09:33:17;;;;;;;;;4.00;3.75;;;;;27.95;29.90;101280.56;146604;650;46019;-69
2021/09/24 09:36:04;;;;;;;;;2.50;2.00;;;;;27.93;29.14;101276.12;146606;645;46018;-72
2021/09/24 09:38:43;;;;;;;;;5.67;5.67;;;;;27.85;28.94;101279.78;146606;609;46018;-70
2021/09/24 09:41:20;;;;;;;;;5.00;3.00;;;;;27.76;29.40;101271.84;146609;660;45028;-73
2021/09/24 09:44:00;;;;;;;;;4.25;4.25;;;;;27.60;28.63;101279.12;146604;636;46018;-71
2021/09/24 09:46:37;;;;;;;;;5.33;5.33;;;;;27.48;29.94;101271.25;146608;664;46018;-72
2021/09/24 09:49:17;;;;;;;;;5.00;5.00;;;;;27.46;30.24;101275.72;146605;579;46019;-73
2021/09/24 09:51:52;;;;;;;;;4.00;4.00;;;;;27.50;30.91;101257.91;146609;587;46018;-72
2021/09/24 09:54:34;;;;;;;;;4.00;4.00;;;;;27.46;30.42;101257.06;146604;580;46018;-73
2021/09/24 09:57:19;;;;;;;;;4.00;4.00;;;;;27.43;30.86;101250.87;146609;704;46018;-72
2021/09/24 09:59:54;;;;;;;;;4.00;4.00;;;;;27.35;30.72;101248.28;146608;584;46018;-72
2021/09/24 10:02:36;;;;;;;;;4.75;4.75;;;;;27.27;31.01;101247.50;146604;713;48027;-71
2021/09/24 10:05:12;;;;;;;;;3.75;3.75;;;;;27.25;29.68;101243.97;146606;653;46018;-71
2021/09/24 10:07:46;;;;;;;;;6.25;5.00;;;;;27.28;29.22;101242.16;146610;652;45018;-71
2021/09/24 10:10:21;;;;;;;;;3.25;3.25;;;;;27.34;28.41;101242.09;146604;578;47010;-71
2021/09/24 10:12:56;;;;;;;;;2.00;2.00;;;;;27.41;29.93;101240.25;146607;572;46018;-72
2021/09/24 10:15:31;;;;;;;;;4.75;4.75;;;;;27.42;31.00;101228.72;146605;563;47914;-72
2021/09/24 10:18:05;;;;;;;;;4.67;3.67;;;;;27.44;29.70;101240.22;146608;683;46019;-72
2021/09/24 10:20:39;;;;;;;;;4.00;4.00;;;;;27.49;28.60;101234.84;146604;569;46018;-71
2021/09/24 10:23:13;;;;;;;;;4.00;4.00;;;;;27.53;28.84;101229.47;146608;596;46018;-72
2021/09/24 10:25:51;;;;;;;;;2.00;2.00;;;;;27.54;29.71;101231.25;146606;586;46019;-72
2021/09/24 10:28:32;;;;;;;;;7.50;6.75;;;;;27.48;30.84;101225.09;146608;646;46008;-73
2021/09/24 10:31:07;;;;;;;;;4.25;4.25;;;;;27.33;29.44;101219.03;146606;597;46914;-72
2021/09/24 10:33:55;;;;;;;;;7.00;4.00;;;;;27.25;30.27;101212.00;146608;564;45021;-72
2021/09/24 10:36:43;;;;;;;;;4.75;4.50;;;;;27.14;30.41;101212.13;146603;605;46018;-73
2021/09/24 10:39:42;;;;;;;;;3.50;3.50;;;;;27.03;31.09;101220.16;146605;583;46018;-72
2021/09/24 10:42:28;;;;;;;;;3.75;3.75;;;;;27.01;30.57;101207.75;146607;660;46010;-71
2021/09/24 10:45:44;;;;;;;;;4.50;4.50;;;;;26.08;29.69;101040.06;146608;569;46008;-72
2021/09/24 10:48:29;;;;;;;;;6.25;4.25;;;;;26.99;29.46;101189.16;146607;572;46019;-74
2021/09/24 10:51:09;;;;;;;;;4.25;4.25;;;;;26.99;29.61;101191.81;146610;671;45018;-72
2021/09/24 10:53:51;;;;;;;;;5.00;4.25;;;;;27.07;30.49;101191.72;146604;564;46018;-73
2021/09/24 10:56:27;;;;;;;;;5.75;5.75;;;;;27.09;29.78;101189.94;146609;569;46018;-73
2021/09/24 10:59:02;;;;;;;;;4.25;3.50;;;;;27.08;30.13;101191.72;146605;597;46018;-71
2021/09/24 11:01:39;;;;;;;;;4.50;4.50;;;;;27.07;29.26;101197.06;146608;566;46019;-72
2021/09/24 11:04:14;;;;;;;;;5.50;5.00;;;;;27.04;30.04;101186.44;146606;619;46031;-72
2021/09/24 11:06:59;;;;;;;;;5.00;5.00;;;;;27.01;30.12;101181.12;146609;684;46018;-72
2021/09/24 11:09:34;;;;;;;;;5.75;5.00;;;;;27.01;30.47;101176.72;146604;582;46030;-72
2021/09/24 11:12:09;;;;;;;;;5.50;4.75;;;;;27.03;29.54;101171.38;146608;601;46018;-71
2021/09/24 11:14:43;;;;;;;;;5.50;5.50;;;;;27.09;29.67;101168.66;146605;635;47022;-71
2021/09/24 11:17:46;;;;;;;;;5.25;5.00;;;;;25.53;31.00;100886.38;146608;660;46019;-72
2021/09/24 11:20:39;;;;;;;;;3.33;2.33;;;;;27.25;30.46;101158.75;146604;569;46020;-72
2021/09/24 11:23:38;;;;;;;;;4.00;4.00;;;;;27.32;29.78;101150.69;146605;622;46010;-71
2021/09/24 11:26:33;;;;;;;;;3.00;3.00;;;;;27.39;29.51;101149.72;146608;628;47010;-72
2021/09/24 11:29:18;;;;;;;;;6.75;5.75;;;;;27.43;29.26;101139.03;146609;667;46018;-72
2021/09/24 11:32:17;;;;;;;;;4.75;4.75;;;;;26.54;30.38;100997.13;146603;619;46019;-72
2021/09/24 11:35:00;;;;;;;;;3.67;3.67;;;;;27.36;30.72;101138.22;146611;569;45036;-72
2021/09/24 11:37:37;;;;;;;;;5.00;5.00;;;;;27.25;29.63;101130.34;146605;563;46018;-71
2021/09/24 11:40:20;;;;;;;;;5.50;4.75;;;;;27.17;29.71;101140.22;146607;640;46018;-72
2021/09/24 11:42:58;;;;;;;;;3.75;3.75;;;;;27.09;29.39;101126.06;146607;580;46018;-72
2021/09/24 11:45:33;;;;;;;;;5.00;5.00;;;;;27.12;29.24;101129.56;146608;590;46018;-72
2021/09/24 11:48:10;;;;;;;;;7.25;6.50;;;;;27.18;29.08;101123.34;146603;581;47915;-72
2021/09/24 11:50:45;;;;;;;;;5.00;5.00;;;;;27.22;29.13;101121.53;146607;624;46008;-73
2021/09/24 11:53:19;;;;;;;;;4.25;4.25;;;;;27.27;29.15;101112.59;146606;614;46019;-73
2021/09/24 11:55:53;;;;;;;;;5.00;5.00;;;;;27.30;28.73;101114.34;146609;707;46008;-72
2021/09/24 11:58:26;;;;;;;;;7.00;5.25;;;;;27.29;29.21;101107.22;146605;680;46018;-72
2021/09/24 12:01:02;;;;;;;;;4.00;4.00;;;;;27.28;28.72;101100.16;146607;665;46019;-72
2021/09/24 12:03:38;;;;;;;;;5.00;3.75;;;;;27.25;30.28;101103.72;146606;569;46010;-72